createdAt,value
2023-04-27T08:18:22.134Z,13.90
2023-04-27T08:22:31.770Z,13.90
2023-04-27T08:26:42.459Z,14.00
2023-04-27T08:39:53.489Z,14.10
2023-04-27T09:07:14.888Z,14.60
2023-04-27T09:11:42.873Z,14.70
2023-04-27T09:16:18.884Z,14.80
2023-04-27T09:20:29.419Z,15.00
2023-04-27T09:29:35.477Z,15.00
2023-04-27T09:33:46.435Z,15.00
2023-04-27T09:38:02.413Z,15.10
2023-04-27T09:42:29.518Z,15.00
2023-04-27T09:51:22.359Z,14.90
2023-04-27T10:00:34.391Z,14.90
2023-04-27T10:05:00.864Z,15.00
2023-04-27T10:09:12.958Z,15.00
2023-04-27T10:13:26.506Z,15.10
2023-04-27T10:17:37.868Z,15.20
2023-04-27T10:21:55.416Z,15.20
2023-04-27T10:26:10.852Z,15.40
2023-04-27T10:30:21.185Z,15.50
2023-04-27T10:34:30.554Z,15.70
2023-04-27T10:38:42.389Z,15.90
2023-04-27T10:42:52.957Z,15.90
2023-04-27T10:47:03.167Z,15.80
2023-04-27T10:51:16.605Z,15.70
2023-04-27T10:55:26.730Z,15.60
2023-04-27T11:00:02.630Z,15.50
2023-04-27T11:04:12.505Z,15.60
2023-04-27T11:08:22.519Z,15.70
2023-04-27T11:12:38.272Z,15.90
2023-04-27T11:16:52.495Z,16.10
2023-04-27T11:21:10.447Z,16.00
2023-04-27T11:25:19.841Z,16.30
2023-04-27T11:29:38.982Z,16.30
2023-04-27T11:33:52.693Z,16.20
2023-04-27T11:42:48.512Z,16.40
2023-04-27T11:55:56.228Z,16.70
2023-04-27T12:00:19.467Z,16.70
2023-04-27T12:10:01.201Z,16.30
2023-04-27T12:19:20.681Z,16.40
2023-04-27T12:23:29.769Z,16.30
2023-04-27T12:27:40.715Z,16.30
2023-04-27T12:31:51.527Z,16.20
2023-04-27T12:36:00.751Z,16.10
2023-04-27T12:40:14.783Z,15.90
2023-04-27T12:44:27.654Z,15.80
2023-04-27T12:48:37.896Z,15.80
2023-04-27T12:52:47.421Z,15.70
2023-04-27T12:56:56.567Z,15.80
2023-04-27T13:01:12.703Z,15.80
2023-04-27T13:05:22.428Z,15.60
2023-04-27T13:09:31.622Z,15.60
2023-04-27T13:13:41.423Z,15.60
2023-04-27T13:17:53.523Z,15.70
2023-04-27T13:22:04.220Z,15.80
2023-04-27T13:26:14.001Z,15.80
2023-04-27T13:30:23.201Z,15.80
2023-04-27T13:34:34.016Z,15.80
2023-04-27T13:38:43.554Z,15.90
2023-04-27T13:42:52.645Z,15.90
2023-04-27T13:47:01.962Z,16.00
2023-04-27T13:51:12.546Z,16.00
2023-04-27T13:55:21.641Z,16.10
2023-04-27T13:59:30.709Z,15.90
2023-04-27T14:03:42.543Z,15.70
2023-04-27T14:07:56.173Z,15.70
2023-04-27T14:12:05.467Z,15.70
2023-04-27T14:16:14.572Z,15.70
2023-04-27T14:20:23.639Z,15.70
2023-04-27T14:24:34.278Z,15.80
2023-04-27T14:28:43.234Z,15.80
2023-04-27T14:32:52.437Z,15.90
2023-04-27T14:37:01.547Z,16.00
2023-04-27T14:41:12.215Z,16.00
2023-04-27T14:45:22.333Z,16.10
2023-04-27T14:49:33.460Z,16.20
2023-04-27T14:53:42.909Z,16.20
2023-04-27T14:57:53.281Z,16.20
2023-04-27T15:02:02.451Z,16.10
2023-04-27T15:06:11.700Z,16.20
2023-04-27T15:10:21.678Z,16.20
2023-04-27T15:14:32.585Z,16.10
2023-04-27T15:18:42.593Z,16.00
2023-04-27T15:22:51.662Z,16.00
2023-04-27T15:27:00.737Z,16.10
2023-04-27T15:31:11.388Z,16.10
2023-04-27T15:35:20.511Z,16.00
2023-04-27T15:39:29.661Z,15.90
2023-04-27T15:43:38.845Z,15.90
2023-04-27T15:47:49.622Z,15.80
2023-04-27T15:51:58.675Z,15.80
2023-04-27T15:56:08.348Z,15.90
2023-04-27T16:00:22.856Z,15.90
2023-04-27T16:04:33.536Z,15.80
2023-04-27T16:08:42.708Z,15.80
2023-04-27T16:12:53.022Z,15.90
2023-04-27T16:17:02.341Z,15.90
2023-04-27T16:21:13.307Z,16.00
2023-04-27T16:25:22.617Z,15.70
2023-04-27T16:29:32.760Z,15.70
2023-04-27T16:33:42.026Z,15.60
2023-04-27T16:37:54.113Z,15.70
2023-04-27T16:42:03.226Z,15.60
2023-04-27T16:46:13.681Z,15.50
2023-04-27T16:50:22.907Z,15.50
2023-04-27T16:54:33.538Z,15.40
2023-04-27T16:58:43.328Z,15.30
2023-04-27T17:02:54.892Z,15.20
2023-04-27T17:07:05.766Z,15.20
2023-04-27T17:11:26.836Z,15.20
2023-04-27T17:15:37.417Z,15.20
2023-04-27T17:19:48.567Z,15.10
2023-04-27T17:24:12.886Z,15.10
2023-04-27T17:28:25.866Z,15.00
2023-04-27T17:32:36.486Z,15.00
2023-04-27T17:36:46.960Z,15.00
2023-04-27T17:40:58.747Z,15.00
2023-04-27T17:45:12.756Z,14.90
2023-04-27T17:49:23.451Z,15.00
2023-04-27T17:53:34.066Z,15.00
2023-04-27T17:57:44.544Z,14.90
2023-04-27T18:01:56.953Z,14.90
2023-04-27T18:06:08.130Z,14.80
2023-04-27T18:10:18.509Z,14.80
2023-04-27T18:14:28.960Z,14.80
2023-04-27T18:18:40.731Z,14.80
2023-04-27T18:22:50.859Z,14.70
2023-04-27T18:27:01.623Z,14.70
2023-04-27T18:31:17.889Z,14.70
2023-04-27T18:35:31.122Z,14.70
2023-04-27T18:39:52.742Z,14.80
2023-04-27T18:44:07.521Z,14.80
2023-04-27T18:48:18.179Z,14.70
2023-04-27T18:52:30.194Z,14.70
2023-04-27T18:56:40.507Z,14.70
2023-04-27T19:00:50.960Z,14.70
2023-04-27T19:05:11.506Z,14.70
2023-04-27T19:09:25.015Z,14.80
2023-04-27T19:13:35.536Z,14.70
2023-04-27T19:17:47.283Z,14.70
2023-04-27T19:22:02.159Z,14.70
2023-04-27T19:26:15.206Z,14.70
2023-04-27T19:30:26.165Z,14.70
2023-04-27T19:34:36.941Z,14.60
2023-04-27T19:38:48.092Z,14.60
2023-04-27T19:43:01.498Z,14.60
2023-04-27T19:47:14.054Z,14.50
2023-04-27T19:51:25.451Z,14.60
2023-04-27T19:55:37.494Z,14.60
2023-04-27T19:59:54.990Z,14.60
2023-04-27T20:04:07.439Z,14.60
2023-04-27T20:08:20.479Z,14.60
2023-04-27T20:16:50.707Z,14.50
2023-04-27T20:21:02.385Z,14.50
2023-04-27T20:25:15.295Z,14.50
2023-04-27T20:29:25.914Z,14.50
2023-04-27T20:33:38.804Z,14.50
2023-04-27T20:37:49.517Z,14.50
2023-04-27T20:42:01.245Z,14.40
2023-04-27T20:46:14.521Z,14.40
2023-04-27T20:50:28.260Z,14.50
2023-04-27T20:54:39.805Z,14.50
2023-04-27T20:58:51.513Z,14.50
2023-04-27T21:03:03.738Z,14.50
2023-04-27T21:07:16.272Z,14.60
2023-04-27T21:11:27.684Z,14.60
2023-04-27T21:15:38.691Z,14.50
2023-04-27T21:19:48.675Z,14.50
2023-04-27T21:24:07.312Z,14.50
2023-04-27T21:28:18.465Z,14.50
2023-04-27T21:32:28.188Z,14.50
2023-04-27T21:36:39.955Z,14.50
2023-04-27T21:40:51.516Z,14.50
2023-04-27T21:45:01.902Z,14.50
2023-04-27T21:49:11.814Z,14.40
2023-04-27T21:53:21.666Z,14.50
2023-04-27T21:57:34.244Z,14.50
2023-04-27T22:01:44.851Z,14.40
2023-04-27T22:05:54.835Z,14.40
2023-04-27T22:10:04.986Z,14.40
2023-04-27T22:14:16.132Z,14.40
2023-04-27T22:18:26.197Z,14.50
2023-04-27T22:22:36.025Z,14.40
2023-04-27T22:51:37.665Z,14.40
2023-04-27T22:55:48.373Z,14.40
2023-04-27T23:00:00.109Z,14.40
2023-04-27T23:04:14.473Z,14.40
2023-04-27T23:08:31.037Z,14.40
2023-04-27T23:12:45.777Z,14.30
2023-04-27T23:17:00.508Z,14.30
2023-04-27T23:21:15.041Z,14.30
2023-04-27T23:25:32.969Z,14.40
2023-04-27T23:29:53.789Z,14.40
2023-04-27T23:34:09.397Z,14.40
2023-04-27T23:38:24.960Z,14.40
2023-04-27T23:42:42.152Z,14.40
2023-04-27T23:46:58.734Z,14.40
2023-04-27T23:51:14.044Z,14.40
2023-04-27T23:55:29.102Z,14.40
2023-04-27T23:59:46.338Z,14.40
